Terminal Aerodrome Forecast
Issued by NWS

Home | Current Version | Previous Version | Text Only | Print | Product List | Glossary On
Versions: 1 2 3 4 5 6 7 8 9 10 11 12 13 14
000
FTUS46 KSGX 231720
TAFPSP
TAF
KPSP 231720Z 2318/2418 VRB05KT P6SM SKC
     FM232100 12009KT P6SM SCT100
     FM240100 VRB05KT P6SM FEW100
     FM240230 33010G18KT P6SM SCT150
     FM240600 VRB05KT P6SM SCT100=

USA.gov is the U.S. government's official web portal to all federal, state and local government web resources and services.